sensor_id;sensor_type;location;lat;lon;timestamp;pressure;altitude;pressure_sealevel;temperature;humidity
21879;BME280;27908;42.708;23.278;2023-02-28T00:01:12;63257.47;;;7.04;100.00
21879;BME280;27908;42.708;23.278;2023-02-28T00:03:38;63233.63;;;7.03;100.00
21879;BME280;27908;42.708;23.278;2023-02-28T00:06:05;63237.06;;;6.92;100.00
21879;BME280;27908;42.708;23.278;2023-02-28T00:08:31;63245.91;;;6.71;100.00
21879;BME280;27908;42.708;23.278;2023-02-28T00:11:01;63190.59;;;6.62;100.00
21879;BME280;27908;42.708;23.278;2023-02-28T00:13:26;63219.06;;;6.70;100.00
21879;BME280;27908;42.708;23.278;2023-02-28T00:16:06;63220.69;;;6.78;100.00
21879;BME280;27908;42.708;23.278;2023-02-28T00:18:32;63203.84;;;6.67;100.00
21879;BME280;27908;42.708;23.278;2023-02-28T00:20:58;63188.81;;;6.40;100.00
21879;BME280;27908;42.708;23.278;2023-02-28T00:23:25;63213.72;;;6.47;100.00
21879;BME280;27908;42.708;23.278;2023-02-28T00:25:51;63200.63;;;6.54;100.00
21879;BME280;27908;42.708;23.278;2023-02-28T00:28:17;63181.19;;;6.36;100.00
21879;BME280;27908;42.708;23.278;2023-02-28T00:30:43;63183.25;;;6.40;100.00
21879;BME280;27908;42.708;23.278;2023-02-28T00:33:08;63138.88;;;6.12;100.00
21879;BME280;27908;42.708;23.278;2023-02-28T00:35:33;63144.06;;;6.22;100.00
21879;BME280;27908;42.708;23.278;2023-02-28T00:37:59;63152.25;;;6.27;100.00
21879;BME280;27908;42.708;23.278;2023-02-28T00:40:24;63206.91;;;6.29;100.00
21879;BME280;27908;42.708;23.278;2023-02-28T00:42:50;63161.91;;;6.32;100.00
21879;BME280;27908;42.708;23.278;2023-02-28T00:45:15;63185.59;;;6.25;100.00
21879;BME280;27908;42.708;23.278;2023-02-28T00:47:41;63154.22;;;6.24;100.00
21879;BME280;27908;42.708;23.278;2023-02-28T00:50:07;63247.34;;;6.26;100.00
21879;BME280;27908;42.708;23.278;2023-02-28T00:52:32;63170.31;;;6.18;100.00
21879;BME280;27908;42.708;23.278;2023-02-28T00:54:58;63186.09;;;6.26;100.00
21879;BME280;27908;42.708;23.278;2023-02-28T00:57:23;63146.97;;;6.10;100.00
21879;BME280;27908;42.708;23.278;2023-02-28T00:59:49;63161.13;;;6.11;100.00
21879;BME280;27908;42.708;23.278;2023-02-28T01:02:14;63132.34;;;6.13;100.00
21879;BME280;27908;42.708;23.278;2023-02-28T01:04:40;63100.91;;;6.07;100.00
21879;BME280;27908;42.708;23.278;2023-02-28T01:07:05;63112.22;;;5.81;100.00
21879;BME280;27908;42.708;23.278;2023-02-28T01:09:31;63107.94;;;5.65;100.00
21879;BME280;27908;42.708;23.278;2023-02-28T01:11:56;63078.69;;;5.68;100.00
21879;BME280;27908;42.708;23.278;2023-02-28T01:14:22;63085.22;;;5.67;100.00
21879;BME280;27908;42.708;23.278;2023-02-28T01:16:47;63124.09;;;5.64;100.00
21879;BME280;27908;42.708;23.278;2023-02-28T01:19:13;63093.84;;;5.68;100.00
21879;BME280;27908;42.708;23.278;2023-02-28T01:21:38;63106.06;;;5.75;100.00
21879;BME280;27908;42.708;23.278;2023-02-28T01:24:23;63105.50;;;5.70;100.00
21879;BME280;27908;42.708;23.278;2023-02-28T01:26:48;63084.22;;;5.66;100.00
21879;BME280;27908;42.708;23.278;2023-02-28T01:29:14;63088.72;;;5.64;100.00
21879;BME280;27908;42.708;23.278;2023-02-28T01:31:40;63103.63;;;5.80;100.00
21879;BME280;27908;42.708;23.278;2023-02-28T01:34:05;63164.91;;;5.91;100.00
21879;BME280;27908;42.708;23.278;2023-02-28T01:36:31;63059.75;;;5.50;100.00
21879;BME280;27908;42.708;23.278;2023-02-28T01:38:57;63078.53;;;5.59;100.00
21879;BME280;27908;42.708;23.278;2023-02-28T01:41:31;63078.75;;;5.73;100.00
21879;BME280;27908;42.708;23.278;2023-02-28T01:47:07;63059.41;;;5.62;100.00
21879;BME280;27908;42.708;23.278;2023-02-28T01:49:33;63104.09;;;5.78;100.00
21879;BME280;27908;42.708;23.278;2023-02-28T01:51:58;63133.56;;;5.90;100.00
21879;BME280;27908;42.708;23.278;2023-02-28T01:54:27;63109.22;;;5.86;100.00
21879;BME280;27908;42.708;23.278;2023-02-28T01:59:50;63124.16;;;5.68;100.00
21879;BME280;27908;42.708;23.278;2023-02-28T02:02:19;63134.94;;;5.79;100.00
21879;BME280;27908;42.708;23.278;2023-02-28T02:04:55;63133.59;;;5.92;100.00
21879;BME280;27908;42.708;23.278;2023-02-28T02:07:23;63156.41;;;5.97;100.00
21879;BME280;27908;42.708;23.278;2023-02-28T02:09:50;63163.94;;;5.92;100.00
21879;BME280;27908;42.708;23.278;2023-02-28T02:15:13;63136.75;;;6.03;100.00
21879;BME280;27908;42.708;23.278;2023-02-28T02:17:43;63120.66;;;6.09;100.00
21879;BME280;27908;42.708;23.278;2023-02-28T02:45:09;63111.59;;;5.73;100.00
21879;BME280;27908;42.708;23.278;2023-02-28T02:47:37;63110.09;;;5.72;100.00
21879;BME280;27908;42.708;23.278;2023-02-28T02:50:11;63090.44;;;5.80;100.00
21879;BME280;27908;42.708;23.278;2023-02-28T02:52:42;63092.38;;;5.72;100.00
21879;BME280;27908;42.708;23.278;2023-02-28T02:55:11;63114.72;;;5.79;100.00
21879;BME280;27908;42.708;23.278;2023-02-28T02:57:46;63095.31;;;5.65;100.00
21879;BME280;27908;42.708;23.278;2023-02-28T03:00:16;63210.81;;;5.84;100.00
21879;BME280;27908;42.708;23.278;2023-02-28T03:02:44;63137.63;;;5.91;100.00
21879;BME280;27908;42.708;23.278;2023-02-28T03:05:49;63075.28;;;5.80;100.00
21879;BME280;27908;42.708;23.278;2023-02-28T03:08:15;63093.91;;;5.73;100.00
21879;BME280;27908;42.708;23.278;2023-02-28T03:10:43;63144.53;;;5.78;100.00
21879;BME280;27908;42.708;23.278;2023-02-28T03:26:51;63163.66;;;6.11;100.00
21879;BME280;27908;42.708;23.278;2023-02-28T03:29:24;63160.75;;;6.21;100.00
21879;BME280;27908;42.708;23.278;2023-02-28T03:31:59;63149.13;;;6.22;100.00
21879;BME280;27908;42.708;23.278;2023-02-28T03:34:34;63188.72;;;6.31;100.00
21879;BME280;27908;42.708;23.278;2023-02-28T03:37:05;63163.91;;;6.29;100.00
21879;BME280;27908;42.708;23.278;2023-02-28T03:39:53;63230.25;;;6.37;100.00
21879;BME280;27908;42.708;23.278;2023-02-28T03:42:24;63180.19;;;6.37;100.00
21879;BME280;27908;42.708;23.278;2023-02-28T03:44:58;63203.56;;;6.45;100.00
21879;BME280;27908;42.708;23.278;2023-02-28T03:50:16;63181.84;;;6.48;100.00
21879;BME280;27908;42.708;23.278;2023-02-28T03:52:53;63196.53;;;6.50;100.00
21879;BME280;27908;42.708;23.278;2023-02-28T03:55:29;63185.72;;;6.35;100.00
21879;BME280;27908;42.708;23.278;2023-02-28T04:00:38;63185.84;;;6.45;100.00
21879;BME280;27908;42.708;23.278;2023-02-28T04:03:05;63181.78;;;6.43;100.00
21879;BME280;27908;42.708;23.278;2023-02-28T04:05:31;63189.88;;;6.44;100.00
21879;BME280;27908;42.708;23.278;2023-02-28T04:08:07;63190.72;;;6.30;100.00
21879;BME280;27908;42.708;23.278;2023-02-28T04:10:33;63196.34;;;6.36;100.00
21879;BME280;27908;42.708;23.278;2023-02-28T04:12:59;63210.03;;;6.37;100.00
21879;BME280;27908;42.708;23.278;2023-02-28T04:15:24;63149.63;;;6.22;100.00
21879;BME280;27908;42.708;23.278;2023-02-28T04:17:50;63095.75;;;6.00;100.00
21879;BME280;27908;42.708;23.278;2023-02-28T04:20:16;63198.00;;;6.08;100.00
21879;BME280;27908;42.708;23.278;2023-02-28T04:22:41;63121.09;;;6.04;100.00
21879;BME280;27908;42.708;23.278;2023-02-28T04:25:07;63120.06;;;6.03;100.00
21879;BME280;27908;42.708;23.278;2023-02-28T04:27:33;63247.94;;;5.98;100.00
21879;BME280;27908;42.708;23.278;2023-02-28T04:29:58;63179.28;;;6.04;100.00
21879;BME280;27908;42.708;23.278;2023-02-28T04:32:23;63162.56;;;6.03;100.00
21879;BME280;27908;42.708;23.278;2023-02-28T04:34:49;63137.66;;;5.96;100.00
21879;BME280;27908;42.708;23.278;2023-02-28T04:37:14;63124.66;;;6.05;100.00
21879;BME280;27908;42.708;23.278;2023-02-28T04:39:40;63153.03;;;6.11;100.00
21879;BME280;27908;42.708;23.278;2023-02-28T04:42:06;63150.22;;;5.89;100.00
21879;BME280;27908;42.708;23.278;2023-02-28T04:44:31;63095.13;;;5.89;100.00
21879;BME280;27908;42.708;23.278;2023-02-28T04:46:57;63119.50;;;5.98;100.00
21879;BME280;27908;42.708;23.278;2023-02-28T04:49:22;63133.63;;;5.95;100.00
21879;BME280;27908;42.708;23.278;2023-02-28T04:51:48;63135.66;;;5.97;100.00
21879;BME280;27908;42.708;23.278;2023-02-28T04:54:15;63130.03;;;5.91;100.00
21879;BME280;27908;42.708;23.278;2023-02-28T04:56:41;63098.72;;;5.93;100.00
21879;BME280;27908;42.708;23.278;2023-02-28T04:59:06;63138.00;;;5.82;100.00
21879;BME280;27908;42.708;23.278;2023-02-28T05:01:33;63151.09;;;5.77;100.00
21879;BME280;27908;42.708;23.278;2023-02-28T05:04:02;63122.41;;;5.86;100.00
21879;BME280;27908;42.708;23.278;2023-02-28T05:06:29;63119.31;;;5.83;100.00
21879;BME280;27908;42.708;23.278;2023-02-28T05:08:55;63140.56;;;5.84;100.00
21879;BME280;27908;42.708;23.278;2023-02-28T05:11:30;63140.63;;;5.89;100.00
21879;BME280;27908;42.708;23.278;2023-02-28T05:14:03;63122.09;;;6.03;100.00
21879;BME280;27908;42.708;23.278;2023-02-28T05:16:29;63132.44;;;5.81;100.00
21879;BME280;27908;42.708;23.278;2023-02-28T05:18:55;63128.13;;;5.99;100.00
21879;BME280;27908;42.708;23.278;2023-02-28T05:21:34;63136.19;;;5.97;100.00
21879;BME280;27908;42.708;23.278;2023-02-28T05:24:03;63123.09;;;6.02;100.00
21879;BME280;27908;42.708;23.278;2023-02-28T05:26:29;63106.34;;;5.59;100.00
21879;BME280;27908;42.708;23.278;2023-02-28T05:28:55;63144.59;;;5.83;100.00
21879;BME280;27908;42.708;23.278;2023-02-28T05:31:21;63146.28;;;5.97;100.00
21879;BME280;27908;42.708;23.278;2023-02-28T05:33:47;63149.94;;;6.05;100.00
21879;BME280;27908;42.708;23.278;2023-02-28T05:36:13;63151.06;;;6.14;100.00
21879;BME280;27908;42.708;23.278;2023-02-28T05:38:39;63207.88;;;6.27;100.00
21879;BME280;27908;42.708;23.278;2023-02-28T05:41:09;63184.03;;;6.21;100.00
21879;BME280;27908;42.708;23.278;2023-02-28T05:43:36;63146.59;;;6.22;100.00
21879;BME280;27908;42.708;23.278;2023-02-28T05:46:12;63172.00;;;6.29;100.00
21879;BME280;27908;42.708;23.278;2023-02-28T05:48:39;63148.13;;;6.21;100.00
21879;BME280;27908;42.708;23.278;2023-02-28T05:51:05;63182.56;;;6.25;100.00
21879;BME280;27908;42.708;23.278;2023-02-28T05:53:31;63207.41;;;6.29;100.00
21879;BME280;27908;42.708;23.278;2023-02-28T05:55:57;63166.03;;;6.38;100.00
21879;BME280;27908;42.708;23.278;2023-02-28T05:58:23;63230.38;;;6.44;100.00
21879;BME280;27908;42.708;23.278;2023-02-28T06:00:50;63205.56;;;6.44;100.00
21879;BME280;27908;42.708;23.278;2023-02-28T06:03:16;63203.75;;;6.60;100.00
21879;BME280;27908;42.708;23.278;2023-02-28T06:05:41;63204.31;;;6.65;100.00
21879;BME280;27908;42.708;23.278;2023-02-28T06:08:06;63228.66;;;6.69;100.00
21879;BME280;27908;42.708;23.278;2023-02-28T06:10:33;63211.50;;;6.72;100.00
21879;BME280;27908;42.708;23.278;2023-02-28T06:13:03;63240.31;;;6.68;100.00
21879;BME280;27908;42.708;23.278;2023-02-28T06:15:29;63269.69;;;6.70;100.00
21879;BME280;27908;42.708;23.278;2023-02-28T06:17:55;63208.81;;;6.60;100.00
21879;BME280;27908;42.708;23.278;2023-02-28T06:20:22;63222.94;;;6.56;100.00
21879;BME280;27908;42.708;23.278;2023-02-28T06:22:48;63386.09;;;6.33;100.00
21879;BME280;27908;42.708;23.278;2023-02-28T06:25:15;63189.19;;;6.70;100.00
21879;BME280;27908;42.708;23.278;2023-02-28T06:27:41;63213.94;;;6.65;100.00
21879;BME280;27908;42.708;23.278;2023-02-28T06:30:07;63222.16;;;6.75;100.00
21879;BME280;27908;42.708;23.278;2023-02-28T06:32:32;63251.41;;;6.67;100.00
21879;BME280;27908;42.708;23.278;2023-02-28T06:34:58;63218.94;;;6.60;100.00
21879;BME280;27908;42.708;23.278;2023-02-28T06:37:23;63203.66;;;6.52;100.00
21879;BME280;27908;42.708;23.278;2023-02-28T06:39:51;63234.22;;;6.67;100.00
21879;BME280;27908;42.708;23.278;2023-02-28T06:42:17;63245.31;;;6.63;100.00
21879;BME280;27908;42.708;23.278;2023-02-28T06:44:42;63172.78;;;6.52;100.00
21879;BME280;27908;42.708;23.278;2023-02-28T06:47:08;63191.56;;;6.55;100.00
21879;BME280;27908;42.708;23.278;2023-02-28T06:49:35;63250.81;;;6.59;100.00
21879;BME280;27908;42.708;23.278;2023-02-28T06:52:01;63245.88;;;6.69;100.00
21879;BME280;27908;42.708;23.278;2023-02-28T06:54:27;63272.28;;;6.74;100.00
21879;BME280;27908;42.708;23.278;2023-02-28T06:56:52;63264.28;;;6.81;100.00
21879;BME280;27908;42.708;23.278;2023-02-28T06:59:19;63277.03;;;6.89;100.00
21879;BME280;27908;42.708;23.278;2023-02-28T07:01:45;63216.16;;;6.81;100.00
21879;BME280;27908;42.708;23.278;2023-02-28T07:04:11;63237.97;;;6.85;100.00
21879;BME280;27908;42.708;23.278;2023-02-28T07:06:38;63278.53;;;6.88;100.00
21879;BME280;27908;42.708;23.278;2023-02-28T07:09:04;63270.03;;;6.97;100.00
21879;BME280;27908;42.708;23.278;2023-02-28T07:11:29;63293.41;;;7.02;100.00
21879;BME280;27908;42.708;23.278;2023-02-28T07:13:55;63267.50;;;6.97;100.00
21879;BME280;27908;42.708;23.278;2023-02-28T07:16:22;63290.94;;;7.09;100.00
21879;BME280;27908;42.708;23.278;2023-02-28T07:18:48;63310.31;;;7.16;100.00
21879;BME280;27908;42.708;23.278;2023-02-28T07:21:14;63287.88;;;7.07;100.00
21879;BME280;27908;42.708;23.278;2023-02-28T07:23:40;63250.34;;;7.02;100.00
21879;BME280;27908;42.708;23.278;2023-02-28T07:26:10;63261.53;;;7.06;100.00
21879;BME280;27908;42.708;23.278;2023-02-28T07:28:38;63302.22;;;7.18;100.00
21879;BME280;27908;42.708;23.278;2023-02-28T07:31:04;63294.13;;;7.20;100.00
21879;BME280;27908;42.708;23.278;2023-02-28T07:33:30;63320.16;;;7.35;100.00
21879;BME280;27908;42.708;23.278;2023-02-28T07:36:04;63319.72;;;7.42;100.00
21879;BME280;27908;42.708;23.278;2023-02-28T07:38:30;63329.69;;;7.27;100.00
21879;BME280;27908;42.708;23.278;2023-02-28T07:40:55;63301.19;;;7.17;100.00
21879;BME280;27908;42.708;23.278;2023-02-28T07:43:21;63301.47;;;7.39;100.00
21879;BME280;27908;42.708;23.278;2023-02-28T07:45:46;63297.22;;;7.25;100.00
21879;BME280;27908;42.708;23.278;2023-02-28T07:48:11;63270.81;;;7.19;100.00
21879;BME280;27908;42.708;23.278;2023-02-28T07:50:37;63317.19;;;7.40;100.00
21879;BME280;27908;42.708;23.278;2023-02-28T07:53:02;63362.94;;;7.52;100.00
21879;BME280;27908;42.708;23.278;2023-02-28T07:55:28;63339.16;;;7.56;100.00
21879;BME280;27908;42.708;23.278;2023-02-28T07:57:53;63370.16;;;7.59;100.00
21879;BME280;27908;42.708;23.278;2023-02-28T08:00:19;63346.78;;;7.56;100.00
21879;BME280;27908;42.708;23.278;2023-02-28T08:02:44;63362.69;;;7.71;100.00
21879;BME280;27908;42.708;23.278;2023-02-28T08:05:10;63384.81;;;7.97;100.00
21879;BME280;27908;42.708;23.278;2023-02-28T08:07:35;63382.66;;;7.85;100.00
21879;BME280;27908;42.708;23.278;2023-02-28T08:10:01;63406.00;;;7.86;100.00
21879;BME280;27908;42.708;23.278;2023-02-28T08:12:26;63389.97;;;8.05;100.00
21879;BME280;27908;42.708;23.278;2023-02-28T08:14:52;63354.03;;;8.09;100.00
21879;BME280;27908;42.708;23.278;2023-02-28T08:17:17;63392.81;;;7.85;100.00
21879;BME280;27908;42.708;23.278;2023-02-28T08:19:45;63414.47;;;8.14;100.00
21879;BME280;27908;42.708;23.278;2023-02-28T08:22:11;63554.38;;;8.36;100.00
21879;BME280;27908;42.708;23.278;2023-02-28T08:24:36;63425.75;;;8.22;100.00
21879;BME280;27908;42.708;23.278;2023-02-28T08:27:02;63379.91;;;8.10;100.00
21879;BME280;27908;42.708;23.278;2023-02-28T08:29:30;63409.25;;;8.04;100.00
21879;BME280;27908;42.708;23.278;2023-02-28T08:31:55;63416.69;;;8.30;100.00
21879;BME280;27908;42.708;23.278;2023-02-28T08:34:22;63427.81;;;8.26;100.00
21879;BME280;27908;42.708;23.278;2023-02-28T08:36:48;63451.31;;;8.39;100.00
21879;BME280;27908;42.708;23.278;2023-02-28T08:39:13;63400.47;;;8.32;100.00
21879;BME280;27908;42.708;23.278;2023-02-28T08:41:39;63428.88;;;8.30;100.00
21879;BME280;27908;42.708;23.278;2023-02-28T08:44:04;63410.44;;;8.17;100.00
21879;BME280;27908;42.708;23.278;2023-02-28T08:46:30;63423.13;;;8.17;100.00
21879;BME280;27908;42.708;23.278;2023-02-28T08:48:56;63375.19;;;7.98;100.00
21879;BME280;27908;42.708;23.278;2023-02-28T08:51:25;63313.31;;;7.55;100.00
21879;BME280;27908;42.708;23.278;2023-02-28T08:53:54;63401.44;;;7.86;100.00
21879;BME280;27908;42.708;23.278;2023-02-28T08:56:20;63399.84;;;7.82;100.00
21879;BME280;27908;42.708;23.278;2023-02-28T08:58:47;63399.47;;;7.92;100.00
21879;BME280;27908;42.708;23.278;2023-02-28T09:01:15;63401.56;;;7.96;100.00
21879;BME280;27908;42.708;23.278;2023-02-28T09:03:41;63434.75;;;8.11;100.00
21879;BME280;27908;42.708;23.278;2023-02-28T09:06:08;63447.09;;;8.25;100.00
21879;BME280;27908;42.708;23.278;2023-02-28T09:08:34;63403.69;;;8.47;100.00
21879;BME280;27908;42.708;23.278;2023-02-28T09:10:59;63427.38;;;8.31;100.00
21879;BME280;27908;42.708;23.278;2023-02-28T09:13:26;63460.09;;;8.50;100.00
21879;BME280;27908;42.708;23.278;2023-02-28T09:15:52;63442.38;;;8.55;100.00
21879;BME280;27908;42.708;23.278;2023-02-28T09:18:18;63467.63;;;8.43;100.00
21879;BME280;27908;42.708;23.278;2023-02-28T09:20:44;63490.97;;;8.43;100.00
21879;BME280;27908;42.708;23.278;2023-02-28T09:23:11;63455.72;;;8.68;100.00
21879;BME280;27908;42.708;23.278;2023-02-28T09:25:37;63450.47;;;8.53;100.00
21879;BME280;27908;42.708;23.278;2023-02-28T09:28:03;63450.00;;;8.55;100.00
21879;BME280;27908;42.708;23.278;2023-02-28T09:30:29;63475.47;;;8.60;100.00
21879;BME280;27908;42.708;23.278;2023-02-28T09:32:55;63449.53;;;8.59;100.00
21879;BME280;27908;42.708;23.278;2023-02-28T09:35:21;63492.75;;;8.62;100.00
21879;BME280;27908;42.708;23.278;2023-02-28T09:37:48;63487.81;;;8.74;100.00
21879;BME280;27908;42.708;23.278;2023-02-28T09:40:14;63503.56;;;8.75;100.00
21879;BME280;27908;42.708;23.278;2023-02-28T09:42:45;63488.09;;;8.57;100.00
21879;BME280;27908;42.708;23.278;2023-02-28T09:47:51;63551.34;;;9.18;100.00
21879;BME280;27908;42.708;23.278;2023-02-28T09:50:32;63598.81;;;9.34;100.00
21879;BME280;27908;42.708;23.278;2023-02-28T09:52:59;63630.59;;;9.53;100.00
21879;BME280;27908;42.708;23.278;2023-02-28T09:55:32;63590.13;;;9.75;100.00
21879;BME280;27908;42.708;23.278;2023-02-28T09:58:00;63616.56;;;9.71;100.00
21879;BME280;27908;42.708;23.278;2023-02-28T10:00:32;63657.53;;;9.91;100.00
21879;BME280;27908;42.708;23.278;2023-02-28T10:05:52;63741.16;;;10.00;100.00
21879;BME280;27908;42.708;23.278;2023-02-28T10:08:25;63677.22;;;10.19;100.00
21879;BME280;27908;42.708;23.278;2023-02-28T10:10:58;63720.16;;;10.33;100.00
21879;BME280;27908;42.708;23.278;2023-02-28T10:13:33;63720.88;;;10.51;100.00
21879;BME280;27908;42.708;23.278;2023-02-28T10:16:10;63708.06;;;10.46;100.00
21879;BME280;27908;42.708;23.278;2023-02-28T10:18:50;63763.28;;;10.60;100.00
21879;BME280;27908;42.708;23.278;2023-02-28T10:21:42;63822.44;;;11.04;100.00
21879;BME280;27908;42.708;23.278;2023-02-28T10:24:26;63833.50;;;11.35;100.00
21879;BME280;27908;42.708;23.278;2023-02-28T10:27:21;63803.09;;;11.54;100.00
21879;BME280;27908;42.708;23.278;2023-02-28T10:30:03;63904.13;;;11.95;100.00
21879;BME280;27908;42.708;23.278;2023-02-28T10:32:34;63922.19;;;12.12;100.00
21879;BME280;27908;42.708;23.278;2023-02-28T10:37:32;63946.72;;;12.13;100.00
21879;BME280;27908;42.708;23.278;2023-02-28T10:40:04;63933.78;;;11.99;100.00
21879;BME280;27908;42.708;23.278;2023-02-28T10:42:31;63925.78;;;12.13;100.00
21879;BME280;27908;42.708;23.278;2023-02-28T10:45:13;63967.94;;;12.39;100.00
21879;BME280;27908;42.708;23.278;2023-02-28T10:50:42;64088.31;;;12.97;100.00
21879;BME280;27908;42.708;23.278;2023-02-28T10:53:27;64098.25;;;13.16;97.31
21879;BME280;27908;42.708;23.278;2023-02-28T11:01:39;64201.69;;;14.08;91.42
21879;BME280;27908;42.708;23.278;2023-02-28T11:07:02;64224.53;;;13.88;91.16
21879;BME280;27908;42.708;23.278;2023-02-28T11:09:33;64214.88;;;13.96;89.35
21879;BME280;27908;42.708;23.278;2023-02-28T11:12:05;64196.69;;;13.74;90.41
21879;BME280;27908;42.708;23.278;2023-02-28T11:14:37;64171.22;;;13.86;89.94
21879;BME280;27908;42.708;23.278;2023-02-28T11:17:20;64167.34;;;13.60;90.78
21879;BME280;27908;42.708;23.278;2023-02-28T11:19:50;64186.03;;;13.37;92.90
21879;BME280;27908;42.708;23.278;2023-02-28T11:22:19;64112.28;;;13.37;92.38
21879;BME280;27908;42.708;23.278;2023-02-28T11:24:48;64121.31;;;13.19;94.96
21879;BME280;27908;42.708;23.278;2023-02-28T11:29:56;64076.16;;;13.10;95.61
21879;BME280;27908;42.708;23.278;2023-02-28T11:32:24;64128.00;;;13.23;95.18
21879;BME280;27908;42.708;23.278;2023-02-28T11:35:21;64152.53;;;13.63;92.45
21879;BME280;27908;42.708;23.278;2023-02-28T11:37:48;64050.13;;;13.71;89.79
21879;BME280;27908;42.708;23.278;2023-02-28T11:40:43;64213.16;;;13.80;89.45
21879;BME280;27908;42.708;23.278;2023-02-28T11:43:33;64196.81;;;13.86;87.75
21879;BME280;27908;42.708;23.278;2023-02-28T11:46:17;64260.69;;;14.13;88.63
21879;BME280;27908;42.708;23.278;2023-02-28T11:51:47;64363.19;;;14.08;87.50
21879;BME280;27908;42.708;23.278;2023-02-28T11:57:49;64384.13;;;14.84;84.87
21879;BME280;27908;42.708;23.278;2023-02-28T12:03:16;64325.38;;;14.62;81.17
21879;BME280;27908;42.708;23.278;2023-02-28T12:05:53;64239.84;;;14.27;84.21
21879;BME280;27908;42.708;23.278;2023-02-28T12:25:54;64266.06;;;14.32;81.70
21879;BME280;27908;42.708;23.278;2023-02-28T12:28:25;64270.03;;;14.22;80.67
21879;BME280;27908;42.708;23.278;2023-02-28T12:31:24;64261.19;;;14.11;83.03
21879;BME280;27908;42.708;23.278;2023-02-28T12:33:54;64243.25;;;14.11;82.07
21879;BME280;27908;42.708;23.278;2023-02-28T12:36:22;64198.91;;;13.88;82.29
21879;BME280;27908;42.708;23.278;2023-02-28T12:38:58;64201.94;;;13.84;82.91
21879;BME280;27908;42.708;23.278;2023-02-28T12:41:42;64163.34;;;13.69;84.83
21879;BME280;27908;42.708;23.278;2023-02-28T12:44:23;64168.44;;;13.66;84.74
21879;BME280;27908;42.708;23.278;2023-02-28T12:46:55;64120.47;;;13.35;85.44
21879;BME280;27908;42.708;23.278;2023-02-28T12:49:39;64120.34;;;13.25;86.42
21879;BME280;27908;42.708;23.278;2023-02-28T12:52:08;64141.25;;;13.18;87.33
21879;BME280;27908;42.708;23.278;2023-02-28T12:54:51;64087.88;;;13.04;88.08
21879;BME280;27908;42.708;23.278;2023-02-28T12:57:36;64114.13;;;13.19;87.45
21879;BME280;27908;42.708;23.278;2023-02-28T13:00:11;64096.22;;;13.19;87.28
21879;BME280;27908;42.708;23.278;2023-02-28T13:10:59;64103.75;;;13.07;87.43
21879;BME280;27908;42.708;23.278;2023-02-28T13:13:28;64104.22;;;13.03;87.55
21879;BME280;27908;42.708;23.278;2023-02-28T13:16:08;64091.78;;;12.88;87.17
21879;BME280;27908;42.708;23.278;2023-02-28T13:19:08;64083.75;;;13.03;88.65
21879;BME280;27908;42.708;23.278;2023-02-28T13:21:42;64088.94;;;13.08;88.93
21879;BME280;27908;42.708;23.278;2023-02-28T13:24:09;64110.81;;;12.97;89.29
21879;BME280;27908;42.708;23.278;2023-02-28T13:39:58;64119.69;;;13.13;88.16
21879;BME280;27908;42.708;23.278;2023-02-28T13:42:36;64093.00;;;13.04;87.02
21879;BME280;27908;42.708;23.278;2023-02-28T13:47:36;64071.75;;;12.81;87.57
21879;BME280;27908;42.708;23.278;2023-02-28T13:55:43;64039.38;;;12.70;87.58
21879;BME280;27908;42.708;23.278;2023-02-28T13:58:39;64090.22;;;12.87;88.79
21879;BME280;27908;42.708;23.278;2023-02-28T14:06:51;64077.38;;;12.80;88.92
21879;BME280;27908;42.708;23.278;2023-02-28T14:09:24;64110.94;;;13.07;90.11
21879;BME280;27908;42.708;23.278;2023-02-28T14:11:51;64099.13;;;13.03;89.24
21879;BME280;27908;42.708;23.278;2023-02-28T14:17:05;64105.50;;;12.80;89.59
21879;BME280;27908;42.708;23.278;2023-02-28T14:19:34;64077.75;;;12.73;90.99
21879;BME280;27908;42.708;23.278;2023-02-28T14:27:24;64022.69;;;12.42;91.31
21879;BME280;27908;42.708;23.278;2023-02-28T14:30:26;63988.13;;;12.14;91.66
21879;BME280;27908;42.708;23.278;2023-02-28T14:38:33;63936.66;;;11.82;95.63
21879;BME280;27908;42.708;23.278;2023-02-28T14:41:03;63899.25;;;11.71;95.81
21879;BME280;27908;42.708;23.278;2023-02-28T14:43:29;63879.22;;;11.61;97.11
21879;BME280;27908;42.708;23.278;2023-02-28T14:46:00;63888.34;;;11.55;98.32
21879;BME280;27908;42.708;23.278;2023-02-28T14:48:26;63857.97;;;11.34;99.72
21879;BME280;27908;42.708;23.278;2023-02-28T14:50:56;63883.13;;;11.45;100.00
21879;BME280;27908;42.708;23.278;2023-02-28T14:53:28;63875.06;;;11.52;99.23
21879;BME280;27908;42.708;23.278;2023-02-28T14:55:55;63831.91;;;11.31;100.00
21879;BME280;27908;42.708;23.278;2023-02-28T15:00:50;63858.50;;;11.34;100.00
21879;BME280;27908;42.708;23.278;2023-02-28T15:03:34;63875.00;;;11.47;100.00
21879;BME280;27908;42.708;23.278;2023-02-28T15:06:05;63836.09;;;11.39;100.00
21879;BME280;27908;42.708;23.278;2023-02-28T15:08:32;63841.09;;;11.30;100.00
21879;BME280;27908;42.708;23.278;2023-02-28T15:11:04;63841.13;;;11.32;100.00
21879;BME280;27908;42.708;23.278;2023-02-28T15:13:54;63820.59;;;11.22;100.00
21879;BME280;27908;42.708;23.278;2023-02-28T15:16:34;63773.38;;;10.97;100.00
21879;BME280;27908;42.708;23.278;2023-02-28T15:19:05;63800.91;;;10.96;100.00
21879;BME280;27908;42.708;23.278;2023-02-28T15:21:38;63791.22;;;10.97;100.00
21879;BME280;27908;42.708;23.278;2023-02-28T15:26:38;63799.72;;;10.83;100.00
21879;BME280;27908;42.708;23.278;2023-02-28T15:29:12;63794.13;;;10.82;100.00
21879;BME280;27908;42.708;23.278;2023-02-28T15:31:48;63773.75;;;10.85;100.00
21879;BME280;27908;42.708;23.278;2023-02-28T15:34:44;63793.50;;;10.72;100.00
21879;BME280;27908;42.708;23.278;2023-02-28T15:37:33;63721.31;;;10.44;100.00